Time;durP1;ratioP1;P1;durP2;ratioP2;P2;SDS_P1;SDS_P2;PMS_P1;PMS_P2;Temp;Humidity;BMP_temperature;BMP_pressure;BME280_temperature;BME280_humidity;BME280_pressure;Samples;Min_cycle;Max_cycle;Signal;HPM_P1;HPM_P2
2024/01/31 00:01:48;;;;;;;;;;;7.80;99.90;;;;;;5006774;28;19932;-78
2024/01/31 00:04:36;;;;;;;;;;;7.80;99.90;;;;;;4992893;28;19989;-78
2024/01/31 00:07:22;;;;;;;;;;;7.80;99.90;;;;;;5008287;28;20574;-78
2024/01/31 00:10:08;;;;;;;;;;;7.70;99.90;;;;;;5026006;28;19920;-79
2024/01/31 00:12:54;;;;;;;;;;;7.70;99.90;;;;;;5037069;28;20253;-77
2024/01/31 00:15:40;;;;;;;;;;;7.70;99.90;;;;;;5035397;28;20522;-78
2024/01/31 00:18:26;;;;;;;;;;;7.70;99.90;;;;;;5027547;28;19921;-78
2024/01/31 00:21:12;;;;;;;;;;;7.60;99.90;;;;;;4988358;28;101131;-78
2024/01/31 00:24:05;;;;;;;;;;;7.60;99.90;;;;;;5061840;27;305631;-79
2024/01/31 00:26:31;;;;;;;;;;;7.60;99.90;;;;;;5062832;28;19920;-78
2024/01/31 00:28:57;;;;;;;;;;;7.60;99.90;;;;;;5058229;28;20003;-78
2024/01/31 00:31:23;;;;;;;;;;;7.60;99.90;;;;;;5075307;28;19939;-79
2024/01/31 00:33:48;;;;;;;;;;;7.60;99.90;;;;;;5070103;28;20245;-79
2024/01/31 00:36:15;;;;;;;;;;;7.60;99.90;;;;;;5073455;28;20388;-79
2024/01/31 00:38:40;;;;;;;;;;;7.60;99.90;;;;;;5060944;28;19917;-79
2024/01/31 00:41:06;;;;;;;;;;;7.50;99.90;;;;;;5080198;28;20329;-78
2024/01/31 00:43:33;;;;;;;;;;;7.50;99.90;;;;;;5080268;28;19972;-78
2024/01/31 00:46:02;;;;;;;;;;;7.50;99.90;;;;;;5071355;28;20682;-78
2024/01/31 00:48:27;;;;;;;;;;;7.60;99.90;;;;;;5072331;28;19960;-78
2024/01/31 00:50:53;;;;;;;;;;;7.50;99.90;;;;;;5064688;28;19949;-80
2024/01/31 00:53:19;;;;;;;;;;;7.50;99.90;;;;;;5076919;28;19958;-78
2024/01/31 00:55:44;;;;;;;;;;;7.50;99.90;;;;;;5067282;28;19916;-78
2024/01/31 00:58:10;;;;;;;;;;;7.50;99.90;;;;;;5070048;28;19924;-77
2024/01/31 01:00:36;;;;;;;;;;;7.50;99.90;;;;;;5082287;28;20509;-79
2024/01/31 01:03:01;;;;;;;;;;;7.50;99.90;;;;;;5087642;28;19927;-79
2024/01/31 01:05:29;;;;;;;;;;;7.50;99.90;;;;;;5078951;28;20329;-78
2024/01/31 01:07:55;;;;;;;;;;;7.50;99.90;;;;;;5070108;28;20007;-77
2024/01/31 01:10:21;;;;;;;;;;;7.60;99.90;;;;;;5080057;28;20008;-76
2024/01/31 01:12:46;;;;;;;;;;;7.60;99.90;;;;;;5067413;28;19920;-77
2024/01/31 01:15:18;;;;;;;;;;;7.60;99.90;;;;;;5073141;28;19978;-76
2024/01/31 01:17:43;;;;;;;;;;;7.50;99.90;;;;;;5059330;28;19917;-78
2024/01/31 01:20:09;;;;;;;;;;;7.50;99.90;;;;;;5070876;28;20245;-76
2024/01/31 01:22:35;;;;;;;;;;;7.50;99.90;;;;;;5052614;28;19925;-77
2024/01/31 01:25:00;;;;;;;;;;;7.50;99.90;;;;;;5038425;28;19920;-77
2024/01/31 01:27:26;;;;;;;;;;;7.50;99.90;;;;;;5082952;28;19917;-77
2024/01/31 01:29:52;;;;;;;;;;;7.40;99.90;;;;;;5061875;28;19913;-78
2024/01/31 01:32:17;;;;;;;;;;;7.40;99.90;;;;;;5074090;28;20340;-76
2024/01/31 01:34:44;;;;;;;;;;;7.40;99.90;;;;;;5044011;28;19948;-77
2024/01/31 01:37:12;;;;;;;;;;;7.40;99.90;;;;;;5049290;28;19913;-77
2024/01/31 01:39:39;;;;;;;;;;;7.40;99.90;;;;;;5036494;28;19917;-77
2024/01/31 01:42:05;;;;;;;;;;;7.40;99.90;;;;;;5069055;28;19920;-76
2024/01/31 01:44:32;;;;;;;;;;;7.30;99.90;;;;;;5072562;28;20025;-76
2024/01/31 01:47:00;;;;;;;;;;;7.20;99.90;;;;;;5072806;28;19920;-76
2024/01/31 01:49:26;;;;;;;;;;;7.20;99.90;;;;;;5058510;28;19916;-76
2024/01/31 01:51:51;;;;;;;;;;;7.20;99.90;;;;;;5052627;28;19927;-75
2024/01/31 01:54:17;;;;;;;;;;;7.20;99.90;;;;;;5070159;28;19921;-77
2024/01/31 01:56:46;;;;;;;;;;;7.10;99.90;;;;;;5039456;28;19912;-76
2024/01/31 01:59:12;;;;;;;;;;;7.10;99.90;;;;;;5039518;28;19916;-79
2024/01/31 02:01:37;;;;;;;;;;;7.10;99.90;;;;;;5049440;28;20396;-77
2024/01/31 02:04:03;;;;;;;;;;;7.10;99.90;;;;;;5073172;28;19927;-77
2024/01/31 02:06:29;;;;;;;;;;;7.00;99.90;;;;;;5057980;28;19966;-77
2024/01/31 02:08:57;;;;;;;;;;;7.00;99.90;;;;;;5054933;28;19917;-77
2024/01/31 02:11:24;;;;;;;;;;;7.00;99.90;;;;;;5052034;28;19947;-78
2024/01/31 02:13:49;;;;;;;;;;;6.90;99.90;;;;;;5057470;28;20233;-78
2024/01/31 02:16:15;;;;;;;;;;;7.00;99.90;;;;;;5055262;28;19920;-76
2024/01/31 02:18:41;;;;;;;;;;;7.00;99.90;;;;;;5050097;28;19939;-77
2024/01/31 02:21:06;;;;;;;;;;;7.00;99.90;;;;;;5070186;28;19941;-77
2024/01/31 02:23:32;;;;;;;;;;;7.00;99.90;;;;;;5064180;28;19977;-77
2024/01/31 02:25:58;;;;;;;;;;;7.10;99.90;;;;;;5038945;28;19920;-77
2024/01/31 02:28:23;;;;;;;;;;;7.00;99.90;;;;;;5044022;28;19927;-78
2024/01/31 02:30:52;;;;;;;;;;;7.00;99.90;;;;;;5021986;28;19927;-79
2024/01/31 02:33:18;;;;;;;;;;;7.00;99.90;;;;;;5038624;28;20768;-77
2024/01/31 02:35:43;;;;;;;;;;;7.00;99.90;;;;;;5048435;28;19912;-77
2024/01/31 02:38:09;;;;;;;;;;;6.90;99.90;;;;;;5055193;28;20000;-77
2024/01/31 02:40:34;;;;;;;;;;;6.90;99.90;;;;;;5065128;28;19912;-77
2024/01/31 02:43:00;;;;;;;;;;;6.90;99.90;;;;;;5070589;28;19917;-77
2024/01/31 02:45:27;;;;;;;;;;;6.80;99.90;;;;;;5041504;28;20007;-77
2024/01/31 02:47:53;;;;;;;;;;;6.80;99.90;;;;;;5051549;28;19948;-78
2024/01/31 02:50:19;;;;;;;;;;;6.70;99.90;;;;;;5051598;28;19913;-77
2024/01/31 02:52:45;;;;;;;;;;;6.70;99.90;;;;;;5041247;28;19966;-78
2024/01/31 02:55:11;;;;;;;;;;;6.70;99.90;;;;;;5054879;28;19943;-77
2024/01/31 02:57:41;;;;;;;;;;;6.70;99.90;;;;;;5055024;28;19932;-78
2024/01/31 03:00:11;;;;;;;;;;;6.60;99.90;;;;;;5054841;28;19948;-78
2024/01/31 03:02:38;;;;;;;;;;;6.50;99.90;;;;;;5057266;28;19952;-77
2024/01/31 03:05:04;;;;;;;;;;;6.60;99.90;;;;;;5072550;28;19917;-77
2024/01/31 03:07:29;;;;;;;;;;;6.50;99.90;;;;;;5058701;28;20548;-77
2024/01/31 03:09:55;;;;;;;;;;;6.40;99.90;;;;;;5056126;28;19913;-78
2024/01/31 03:12:21;;;;;;;;;;;6.40;99.90;;;;;;5038063;28;20442;-78
2024/01/31 03:14:46;;;;;;;;;;;6.50;99.90;;;;;;5038944;28;19916;-77
2024/01/31 03:17:12;;;;;;;;;;;6.40;99.90;;;;;;5047249;28;19912;-77
2024/01/31 03:19:38;;;;;;;;;;;6.40;99.90;;;;;;5062007;28;20084;-77
2024/01/31 03:22:05;;;;;;;;;;;6.40;99.90;;;;;;5052569;28;21347;-77
2024/01/31 03:24:30;;;;;;;;;;;6.40;99.90;;;;;;5040384;28;19924;-78
2024/01/31 03:26:56;;;;;;;;;;;6.40;99.90;;;;;;5038552;28;20923;-77
2024/01/31 03:29:22;;;;;;;;;;;6.40;99.90;;;;;;5048189;28;19923;-77
2024/01/31 03:31:47;;;;;;;;;;;6.40;99.90;;;;;;5070354;28;19971;-77
2024/01/31 03:34:13;;;;;;;;;;;6.40;99.90;;;;;;5055558;28;19928;-78
2024/01/31 03:36:39;;;;;;;;;;;6.30;99.90;;;;;;5085616;28;19959;-78
2024/01/31 03:39:04;;;;;;;;;;;6.40;99.90;;;;;;5055197;28;19912;-78
2024/01/31 03:41:30;;;;;;;;;;;6.40;99.90;;;;;;5041921;28;20233;-77
2024/01/31 03:43:56;;;;;;;;;;;6.30;99.90;;;;;;5035427;28;19952;-77
2024/01/31 03:46:21;;;;;;;;;;;6.30;99.90;;;;;;5034387;28;19917;-77
2024/01/31 03:48:47;;;;;;;;;;;6.30;99.90;;;;;;5051072;28;20349;-77
2024/01/31 03:51:19;;;;;;;;;;;6.20;99.90;;;;;;5088606;28;19921;-77
2024/01/31 03:53:46;;;;;;;;;;;6.30;99.90;;;;;;5034422;28;19917;-76
2024/01/31 03:56:13;;;;;;;;;;;6.20;99.90;;;;;;5060442;28;19924;-79
2024/01/31 03:58:39;;;;;;;;;;;6.20;99.90;;;;;;5067337;28;19978;-77
2024/01/31 04:01:07;;;;;;;;;;;6.20;99.90;;;;;;5073924;28;19924;-77
2024/01/31 04:03:33;;;;;;;;;;;6.20;99.90;;;;;;5045568;28;19921;-76
2024/01/31 04:05:59;;;;;;;;;;;6.20;99.90;;;;;;5020649;28;19963;-77
2024/01/31 04:08:24;;;;;;;;;;;6.20;99.90;;;;;;5045323;28;19913;-78
2024/01/31 04:10:52;;;;;;;;;;;6.20;99.90;;;;;;5070516;28;19913;-78
2024/01/31 04:13:18;;;;;;;;;;;6.10;99.90;;;;;;5057152;28;20017;-78
2024/01/31 04:15:44;;;;;;;;;;;6.10;99.90;;;;;;5037360;28;19943;-75
2024/01/31 04:18:10;;;;;;;;;;;6.10;99.90;;;;;;5043937;28;20577;-77
2024/01/31 04:20:37;;;;;;;;;;;6.10;99.90;;;;;;5052436;28;19913;-77
2024/01/31 04:23:02;;;;;;;;;;;6.00;99.90;;;;;;5059307;28;19970;-76
2024/01/31 04:25:28;;;;;;;;;;;6.10;99.90;;;;;;5065984;28;19917;-76
2024/01/31 04:27:54;;;;;;;;;;;6.00;99.90;;;;;;5037396;28;19921;-76
2024/01/31 04:30:19;;;;;;;;;;;6.00;99.90;;;;;;5037413;28;19959;-76
2024/01/31 04:32:45;;;;;;;;;;;6.00;99.90;;;;;;5070830;28;19963;-75
2024/01/31 04:35:11;;;;;;;;;;;6.00;99.90;;;;;;5054383;28;19923;-76
2024/01/31 04:37:36;;;;;;;;;;;6.00;99.90;;;;;;5040415;28;19912;-77
2024/01/31 04:40:03;;;;;;;;;;;6.00;99.90;;;;;;5074559;28;19927;-77
2024/01/31 04:42:28;;;;;;;;;;;6.00;99.90;;;;;;5036429;28;19921;-77
2024/01/31 04:44:54;;;;;;;;;;;5.90;99.90;;;;;;5016556;28;19917;-77
2024/01/31 04:47:25;;;;;;;;;;;5.90;99.90;;;;;;5018645;28;19947;-76
2024/01/31 04:49:58;;;;;;;;;;;6.00;99.90;;;;;;5059852;28;19920;-76
2024/01/31 04:52:24;;;;;;;;;;;6.00;99.90;;;;;;5043241;28;19948;-77
2024/01/31 04:54:50;;;;;;;;;;;6.00;99.90;;;;;;5037064;28;19917;-77
2024/01/31 04:57:16;;;;;;;;;;;6.00;99.90;;;;;;5053262;28;20393;-76
2024/01/31 04:59:42;;;;;;;;;;;6.00;99.90;;;;;;5054641;28;20019;-77
2024/01/31 05:02:07;;;;;;;;;;;6.00;99.90;;;;;;5040294;28;20444;-76
2024/01/31 05:04:33;;;;;;;;;;;6.00;99.90;;;;;;5064449;28;19928;-76
2024/01/31 05:06:59;;;;;;;;;;;6.00;99.90;;;;;;5054833;28;19992;-76
2024/01/31 05:09:25;;;;;;;;;;;6.00;99.90;;;;;;5036749;28;20444;-76
2024/01/31 05:11:50;;;;;;;;;;;6.00;99.90;;;;;;5056760;28;19913;-77
2024/01/31 05:14:16;;;;;;;;;;;6.00;99.90;;;;;;5049240;28;19912;-77
2024/01/31 05:16:42;;;;;;;;;;;6.00;99.90;;;;;;5044733;28;19920;-76
2024/01/31 05:19:11;;;;;;;;;;;6.00;99.90;;;;;;5092159;28;19928;-77
2024/01/31 05:21:46;;;;;;;;;;;6.00;99.90;;;;;;5091627;28;19912;-77
2024/01/31 05:24:12;;;;;;;;;;;6.10;99.90;;;;;;5073646;28;20395;-77
2024/01/31 05:26:38;;;;;;;;;;;6.10;99.90;;;;;;5023186;28;19921;-77
2024/01/31 05:29:03;;;;;;;;;;;6.10;99.90;;;;;;5055546;28;20312;-77
2024/01/31 05:31:29;;;;;;;;;;;6.00;99.90;;;;;;5088754;28;19927;-76
2024/01/31 05:33:55;;;;;;;;;;;6.00;99.90;;;;;;5073349;28;20245;-77
2024/01/31 05:36:21;;;;;;;;;;;6.00;99.90;;;;;;5053635;28;19944;-76
2024/01/31 05:38:46;;;;;;;;;;;5.90;99.90;;;;;;5058962;28;19954;-76
2024/01/31 05:41:13;;;;;;;;;;;5.80;99.90;;;;;;5092068;28;19921;-77
2024/01/31 05:43:42;;;;;;;;;;;5.80;99.90;;;;;;5056565;28;19917;-75
2024/01/31 05:46:08;;;;;;;;;;;5.80;99.90;;;;;;5037109;28;19917;-77
2024/01/31 05:48:36;;;;;;;;;;;5.80;99.90;;;;;;5076013;28;20396;-77
2024/01/31 05:51:04;;;;;;;;;;;5.70;99.90;;;;;;5049336;28;19921;-77
2024/01/31 05:53:30;;;;;;;;;;;5.70;99.90;;;;;;5038151;28;20390;-76
2024/01/31 05:55:57;;;;;;;;;;;5.70;99.90;;;;;;5053725;28;19913;-76
2024/01/31 05:58:23;;;;;;;;;;;5.70;99.90;;;;;;5059539;28;19923;-77
2024/01/31 06:00:49;;;;;;;;;;;5.60;99.90;;;;;;5071121;28;19924;-76
2024/01/31 06:03:15;;;;;;;;;;;5.70;99.90;;;;;;5019658;28;19920;-77
2024/01/31 06:05:41;;;;;;;;;;;5.70;99.90;;;;;;5053040;28;19999;-77
2024/01/31 06:08:07;;;;;;;;;;;5.70;99.90;;;;;;5055742;28;20818;-76
2024/01/31 06:10:36;;;;;;;;;;;5.70;99.90;;;;;;5072061;28;19913;-77
2024/01/31 06:13:02;;;;;;;;;;;5.50;99.90;;;;;;5066711;28;19913;-76
2024/01/31 06:15:28;;;;;;;;;;;5.50;99.90;;;;;;5054676;28;20537;-77
2024/01/31 06:17:54;;;;;;;;;;;5.50;99.90;;;;;;5053323;28;19917;-77
2024/01/31 06:20:21;;;;;;;;;;;5.60;99.90;;;;;;5054827;28;19913;-77
2024/01/31 06:22:47;;;;;;;;;;;5.50;99.90;;;;;;5057672;28;19932;-76
2024/01/31 06:25:12;;;;;;;;;;;5.60;99.90;;;;;;5051449;28;19913;-75
2024/01/31 06:27:38;;;;;;;;;;;5.60;99.90;;;;;;5084861;28;20329;-76
2024/01/31 06:30:04;;;;;;;;;;;5.60;99.90;;;;;;5035675;28;19924;-76
2024/01/31 06:32:34;;;;;;;;;;;5.60;99.90;;;;;;5068845;28;19917;-76
2024/01/31 06:35:00;;;;;;;;;;;5.60;99.90;;;;;;5071564;28;19917;-75
2024/01/31 06:37:26;;;;;;;;;;;5.60;99.90;;;;;;5038442;28;19916;-76
2024/01/31 06:39:52;;;;;;;;;;;5.60;99.90;;;;;;5072729;28;19913;-77
2024/01/31 06:42:18;;;;;;;;;;;5.60;99.90;;;;;;5051303;28;20256;-77
2024/01/31 06:44:44;;;;;;;;;;;5.60;99.90;;;;;;5071687;28;19931;-77
2024/01/31 06:47:09;;;;;;;;;;;5.60;99.90;;;;;;5072319;28;19924;-77
2024/01/31 06:49:35;;;;;;;;;;;5.50;99.90;;;;;;5040261;28;19915;-77
2024/01/31 06:52:01;;;;;;;;;;;5.50;99.90;;;;;;5066821;28;20306;-76
2024/01/31 06:54:26;;;;;;;;;;;5.50;99.90;;;;;;5020803;28;20325;-76
2024/01/31 06:56:52;;;;;;;;;;;5.40;99.90;;;;;;5035588;28;19971;-76
2024/01/31 06:59:18;;;;;;;;;;;5.40;99.90;;;;;;5072886;28;20338;-76
2024/01/31 07:01:43;;;;;;;;;;;5.50;99.90;;;;;;5035434;28;19920;-76
2024/01/31 07:04:09;;;;;;;;;;;5.40;99.90;;;;;;5018986;28;20007;-76
2024/01/31 07:06:35;;;;;;;;;;;5.50;99.90;;;;;;5035975;28;20261;-76
2024/01/31 07:09:00;;;;;;;;;;;5.50;99.90;;;;;;5032881;28;19913;-77
2024/01/31 07:11:26;;;;;;;;;;;5.40;99.90;;;;;;5029827;28;19974;-76
2024/01/31 07:13:52;;;;;;;;;;;5.50;99.90;;;;;;5051720;28;19927;-77
2024/01/31 07:16:18;;;;;;;;;;;5.50;99.90;;;;;;5055243;28;19999;-76
2024/01/31 07:18:44;;;;;;;;;;;5.50;99.90;;;;;;5063264;28;19952;-76
2024/01/31 07:21:10;;;;;;;;;;;5.50;99.90;;;;;;5055116;28;19982;-76
2024/01/31 07:23:36;;;;;;;;;;;5.50;99.90;;;;;;5037527;28;19927;-77
2024/01/31 07:26:02;;;;;;;;;;;5.40;99.90;;;;;;5036931;28;20015;-76
2024/01/31 07:28:27;;;;;;;;;;;5.40;99.90;;;;;;5071152;28;20007;-76
2024/01/31 07:30:53;;;;;;;;;;;5.40;99.90;;;;;;5029923;28;19962;-77
2024/01/31 07:33:19;;;;;;;;;;;5.40;99.90;;;;;;5056719;28;19916;-77
2024/01/31 07:35:45;;;;;;;;;;;5.40;99.90;;;;;;5087023;28;19938;-77
2024/01/31 07:38:10;;;;;;;;;;;5.40;99.90;;;;;;5066497;28;20011;-77
2024/01/31 07:40:37;;;;;;;;;;;5.40;99.90;;;;;;5031941;28;20291;-76
2024/01/31 07:43:03;;;;;;;;;;;5.40;99.90;;;;;;5038197;28;19921;-76
2024/01/31 07:45:29;;;;;;;;;;;5.40;99.90;;;;;;5065756;28;20321;-76
2024/01/31 07:47:56;;;;;;;;;;;5.40;99.90;;;;;;5060184;28;19921;-78
2024/01/31 07:50:25;;;;;;;;;;;5.50;99.90;;;;;;5070085;28;20015;-77
2024/01/31 07:52:53;;;;;;;;;;;5.70;99.90;;;;;;5055655;28;19917;-78
2024/01/31 07:55:24;;;;;;;;;;;5.70;99.90;;;;;;5052808;28;19913;-79
2024/01/31 07:57:50;;;;;;;;;;;5.80;99.90;;;;;;5051807;28;19917;-77
2024/01/31 08:00:18;;;;;;;;;;;5.90;99.90;;;;;;5088384;28;19916;-77
2024/01/31 08:02:46;;;;;;;;;;;5.90;99.90;;;;;;5049855;28;19929;-77
2024/01/31 08:05:11;;;;;;;;;;;5.70;99.90;;;;;;5067347;28;19944;-78
2024/01/31 08:07:37;;;;;;;;;;;5.40;99.90;;;;;;5050720;28;20357;-77
2024/01/31 08:10:03;;;;;;;;;;;5.70;99.90;;;;;;5055268;28;19912;-76
2024/01/31 08:12:29;;;;;;;;;;;6.00;99.90;;;;;;5064017;28;20010;-77
2024/01/31 08:14:54;;;;;;;;;;;6.30;99.90;;;;;;5055518;28;19917;-78
2024/01/31 08:17:20;;;;;;;;;;;6.20;99.90;;;;;;5002761;28;19975;-77
2024/01/31 08:19:47;;;;;;;;;;;6.20;99.90;;;;;;5057388;28;19920;-77
2024/01/31 08:22:15;;;;;;;;;;;6.30;99.90;;;;;;5050614;28;20027;-78
2024/01/31 08:24:41;;;;;;;;;;;6.30;99.90;;;;;;5017448;28;19924;-78
2024/01/31 08:27:07;;;;;;;;;;;6.40;99.90;;;;;;5053239;28;19917;-78
2024/01/31 08:29:32;;;;;;;;;;;6.40;99.90;;;;;;5053742;28;19913;-78
2024/01/31 08:31:59;;;;;;;;;;;6.40;99.90;;;;;;5025105;28;20335;-77
2024/01/31 08:34:24;;;;;;;;;;;6.40;99.90;;;;;;5074042;28;19917;-78
2024/01/31 08:36:50;;;;;;;;;;;6.50;99.90;;;;;;5051491;28;19923;-78
2024/01/31 08:39:16;;;;;;;;;;;6.50;99.90;;;;;;5068716;28;19912;-78
2024/01/31 08:41:42;;;;;;;;;;;6.40;99.90;;;;;;5073065;28;20317;-77
2024/01/31 08:44:09;;;;;;;;;;;6.50;99.90;;;;;;5074527;28;19978;-78
2024/01/31 08:46:34;;;;;;;;;;;6.50;99.90;;;;;;5065408;28;19917;-77
2024/01/31 08:49:00;;;;;;;;;;;6.60;99.90;;;;;;5090855;28;20023;-77
2024/01/31 08:51:26;;;;;;;;;;;6.70;99.90;;;;;;5058212;28;20055;-76
2024/01/31 08:53:52;;;;;;;;;;;6.60;99.90;;;;;;5051750;28;19934;-76
2024/01/31 08:56:17;;;;;;;;;;;6.60;99.90;;;;;;5024583;28;19916;-77
2024/01/31 08:58:43;;;;;;;;;;;6.60;99.90;;;;;;5057535;28;19912;-76
2024/01/31 09:01:09;;;;;;;;;;;6.70;99.90;;;;;;5071722;28;20011;-77
2024/01/31 09:03:34;;;;;;;;;;;6.80;99.90;;;;;;5057322;28;19928;-75
2024/01/31 09:06:03;;;;;;;;;;;6.80;99.90;;;;;;5057564;28;20337;-77
2024/01/31 09:08:28;;;;;;;;;;;7.00;99.90;;;;;;5057256;28;19913;-77
2024/01/31 09:10:54;;;;;;;;;;;6.90;99.90;;;;;;5057304;28;19948;-77
2024/01/31 09:13:20;;;;;;;;;;;6.90;99.90;;;;;;5086843;28;19936;-75
2024/01/31 09:15:45;;;;;;;;;;;6.80;99.90;;;;;;5054320;28;20646;-77
2024/01/31 09:18:11;;;;;;;;;;;6.70;99.90;;;;;;5110946;28;19920;-75
2024/01/31 09:20:38;;;;;;;;;;;6.40;99.90;;;;;;5070093;28;19923;-76
2024/01/31 09:23:04;;;;;;;;;;;6.30;99.90;;;;;;5051878;28;19921;-77
2024/01/31 09:25:29;;;;;;;;;;;6.20;99.90;;;;;;5037519;28;20019;-76
2024/01/31 09:27:55;;;;;;;;;;;6.10;99.90;;;;;;5061192;28;19921;-75
2024/01/31 09:30:20;;;;;;;;;;;6.00;99.90;;;;;;5076298;28;19931;-77
2024/01/31 09:32:46;;;;;;;;;;;5.90;99.90;;;;;;5060056;28;20244;-77
2024/01/31 09:35:12;;;;;;;;;;;5.90;99.90;;;;;;5057356;28;19924;-76
2024/01/31 09:37:37;;;;;;;;;;;6.00;99.90;;;;;;5041310;28;19936;-77
2024/01/31 09:40:05;;;;;;;;;;;6.00;99.90;;;;;;5079145;28;20285;-77
2024/01/31 09:42:30;;;;;;;;;;;6.00;99.90;;;;;;5056087;28;19959;-76
2024/01/31 09:44:56;;;;;;;;;;;6.00;99.90;;;;;;5077592;28;19952;-77
2024/01/31 09:47:26;;;;;;;;;;;5.90;99.90;;;;;;5066274;28;19939;-76
2024/01/31 09:49:51;;;;;;;;;;;5.90;99.90;;;;;;5056038;28;19913;-77
2024/01/31 09:52:18;;;;;;;;;;;5.90;99.90;;;;;;5054395;28;19924;-76
2024/01/31 09:54:44;;;;;;;;;;;5.90;99.90;;;;;;5035704;28;19917;-77
2024/01/31 09:57:10;;;;;;;;;;;5.90;99.90;;;;;;5052905;28;20243;-76
2024/01/31 09:59:35;;;;;;;;;;;5.80;99.90;;;;;;5040414;28;19917;-77
2024/01/31 10:02:01;;;;;;;;;;;5.80;99.90;;;;;;5044628;28;19912;-76
2024/01/31 10:04:27;;;;;;;;;;;5.80;99.90;;;;;;5081927;28;19920;-77
2024/01/31 10:06:53;;;;;;;;;;;5.80;99.90;;;;;;5054370;28;19916;-77
2024/01/31 10:09:18;;;;;;;;;;;5.70;99.90;;;;;;5031704;28;19931;-77
2024/01/31 10:11:47;;;;;;;;;;;5.70;99.90;;;;;;5054085;28;19917;-77
2024/01/31 10:14:13;;;;;;;;;;;5.80;99.90;;;;;;5043629;28;19927;-76
2024/01/31 10:16:39;;;;;;;;;;;5.70;99.90;;;;;;5083601;28;19916;-77
2024/01/31 10:19:05;;;;;;;;;;;5.70;99.90;;;;;;5067450;28;19916;-77
2024/01/31 10:21:31;;;;;;;;;;;5.70;99.90;;;;;;5038695;28;19932;-77
2024/01/31 10:23:58;;;;;;;;;;;5.70;99.90;;;;;;5055334;28;20011;-76
2024/01/31 10:26:24;;;;;;;;;;;5.60;99.90;;;;;;5061241;28;19925;-77
2024/01/31 10:28:50;;;;;;;;;;;5.60;99.90;;;;;;5058826;28;20487;-76
2024/01/31 10:31:15;;;;;;;;;;;5.60;99.90;;;;;;5055514;28;19916;-77
2024/01/31 10:33:41;;;;;;;;;;;5.60;99.90;;;;;;5039146;28;19931;-77
2024/01/31 10:36:08;;;;;;;;;;;5.60;99.90;;;;;;5055526;28;19912;-77
2024/01/31 10:38:33;;;;;;;;;;;5.60;99.90;;;;;;5056307;28;19917;-76
2024/01/31 10:40:59;;;;;;;;;;;5.50;99.90;;;;;;5056110;28;19916;-77
2024/01/31 10:43:25;;;;;;;;;;;5.50;99.90;;;;;;5038976;28;19946;-75
2024/01/31 10:45:51;;;;;;;;;;;5.50;99.90;;;;;;5047928;28;20007;-76
2024/01/31 10:48:16;;;;;;;;;;;5.50;99.90;;;;;;5038938;28;19913;-77
2024/01/31 10:50:42;;;;;;;;;;;5.50;99.90;;;;;;5055486;28;19955;-76
2024/01/31 10:53:08;;;;;;;;;;;5.60;99.90;;;;;;5050683;28;19942;-77
2024/01/31 10:55:33;;;;;;;;;;;5.60;99.90;;;;;;5038957;28;20008;-77
2024/01/31 10:58:00;;;;;;;;;;;5.60;99.90;;;;;;5059114;28;20240;-77
2024/01/31 11:00:28;;;;;;;;;;;5.60;99.90;;;;;;5055972;28;19913;-77
2024/01/31 11:02:54;;;;;;;;;;;5.60;99.90;;;;;;5055844;28;19920;-77
2024/01/31 11:05:20;;;;;;;;;;;5.60;99.90;;;;;;5052042;28;19932;-77
2024/01/31 11:07:46;;;;;;;;;;;5.60;99.90;;;;;;5050769;28;19917;-77
2024/01/31 11:10:15;;;;;;;;;;;5.70;99.90;;;;;;5054483;28;19916;-77
2024/01/31 11:12:40;;;;;;;;;;;5.70;99.90;;;;;;5024816;28;19927;-77
2024/01/31 11:15:06;;;;;;;;;;;5.70;99.90;;;;;;5063880;28;20206;-78
2024/01/31 11:17:34;;;;;;;;;;;5.70;99.90;;;;;;5083681;28;19917;-76
2024/01/31 11:20:01;;;;;;;;;;;5.70;99.90;;;;;;5082101;28;20396;-76
2024/01/31 11:22:28;;;;;;;;;;;5.70;99.90;;;;;;5047186;28;19928;-75
2024/01/31 11:24:54;;;;;;;;;;;5.60;99.90;;;;;;5073544;28;20030;-77
2024/01/31 11:27:20;;;;;;;;;;;5.70;99.90;;;;;;5072841;28;19913;-77
2024/01/31 11:29:50;;;;;;;;;;;5.80;99.90;;;;;;5042373;28;19995;-75
2024/01/31 11:32:21;;;;;;;;;;;5.70;99.90;;;;;;5039367;28;20349;-77
2024/01/31 11:34:56;;;;;;;;;;;5.70;99.90;;;;;;5058605;28;19974;-76
2024/01/31 11:37:22;;;;;;;;;;;5.70;99.90;;;;;;5053597;28;19960;-77
2024/01/31 11:39:48;;;;;;;;;;;5.70;99.90;;;;;;5046287;28;20340;-76
2024/01/31 11:42:14;;;;;;;;;;;5.60;99.90;;;;;;5078024;28;19920;-77
2024/01/31 11:44:40;;;;;;;;;;;5.70;99.90;;;;;;5051653;28;19927;-76
2024/01/31 11:47:05;;;;;;;;;;;5.80;99.90;;;;;;5070539;28;20007;-77
2024/01/31 11:49:31;;;;;;;;;;;5.80;99.90;;;;;;5030997;28;19917;-76
2024/01/31 11:51:57;;;;;;;;;;;5.80;99.90;;;;;;5062019;28;19917;-77
2024/01/31 11:54:23;;;;;;;;;;;5.80;99.90;;;;;;5053237;28;20293;-76
2024/01/31 11:56:48;;;;;;;;;;;5.70;99.90;;;;;;5027693;28;19932;-76
2024/01/31 11:59:14;;;;;;;;;;;5.70;99.90;;;;;;5085290;28;20015;-76
2024/01/31 12:01:40;;;;;;;;;;;5.80;99.90;;;;;;5037417;28;19917;-77
2024/01/31 12:04:06;;;;;;;;;;;5.80;99.90;;;;;;5045461;28;20260;-77
2024/01/31 12:06:31;;;;;;;;;;;5.80;99.90;;;;;;5019225;28;20209;-76
2024/01/31 12:08:57;;;;;;;;;;;5.80;99.90;;;;;;5036190;28;19928;-77
2024/01/31 12:11:23;;;;;;;;;;;5.90;99.90;;;;;;5053675;28;19913;-77
2024/01/31 12:13:49;;;;;;;;;;;5.90;99.90;;;;;;5061298;28;19917;-76
2024/01/31 12:16:15;;;;;;;;;;;5.90;99.90;;;;;;5052709;28;19916;-77
2024/01/31 12:18:41;;;;;;;;;;;5.80;99.90;;;;;;5051352;28;20318;-76
2024/01/31 12:21:09;;;;;;;;;;;5.80;99.90;;;;;;5070104;28;19913;-75
2024/01/31 12:23:35;;;;;;;;;;;5.90;99.90;;;;;;5091083;28;20333;-76
2024/01/31 12:26:02;;;;;;;;;;;5.80;99.90;;;;;;5048703;28;19923;-76
2024/01/31 12:28:27;;;;;;;;;;;5.90;99.90;;;;;;5037587;28;19917;-77
2024/01/31 12:30:53;;;;;;;;;;;5.80;99.90;;;;;;5050779;28;19974;-76
2024/01/31 12:33:19;;;;;;;;;;;5.90;99.90;;;;;;5036291;28;19921;-77
2024/01/31 12:35:46;;;;;;;;;;;5.80;99.90;;;;;;5038969;28;19924;-77
2024/01/31 12:38:12;;;;;;;;;;;5.80;99.90;;;;;;5041181;28;19916;-76
2024/01/31 12:40:38;;;;;;;;;;;5.80;99.90;;;;;;5046062;28;19939;-75
2024/01/31 12:43:04;;;;;;;;;;;5.90;99.90;;;;;;5050653;28;19924;-76
2024/01/31 12:45:31;;;;;;;;;;;5.90;99.90;;;;;;5028451;28;19924;-76
2024/01/31 12:47:57;;;;;;;;;;;5.90;99.90;;;;;;5052616;28;19917;-75
2024/01/31 12:50:22;;;;;;;;;;;5.80;99.90;;;;;;5057153;28;19971;-77
2024/01/31 12:52:48;;;;;;;;;;;5.80;99.90;;;;;;5057694;28;19948;-77
2024/01/31 12:55:14;;;;;;;;;;;5.90;99.90;;;;;;5026872;28;20330;-76
2024/01/31 12:57:40;;;;;;;;;;;5.90;99.90;;;;;;5052424;28;19924;-77
2024/01/31 13:00:06;;;;;;;;;;;5.90;99.90;;;;;;5062257;28;19912;-76
2024/01/31 13:02:32;;;;;;;;;;;5.90;99.90;;;;;;5046079;28;19971;-77
2024/01/31 13:04:57;;;;;;;;;;;6.00;99.90;;;;;;5053168;28;20249;-76
2024/01/31 13:07:23;;;;;;;;;;;5.90;99.90;;;;;;5052356;28;19922;-77
2024/01/31 13:09:49;;;;;;;;;;;5.90;99.90;;;;;;5065282;28;19917;-77
2024/01/31 13:12:15;;;;;;;;;;;5.90;99.90;;;;;;5068866;28;19917;-77
2024/01/31 13:14:40;;;;;;;;;;;6.00;99.90;;;;;;5051603;28;19982;-76
2024/01/31 13:17:06;;;;;;;;;;;6.00;99.90;;;;;;5052649;28;19995;-76
2024/01/31 13:19:32;;;;;;;;;;;6.00;99.90;;;;;;5036303;28;20215;-77
2024/01/31 13:21:57;;;;;;;;;;;6.00;99.90;;;;;;5036661;28;20539;-76
2024/01/31 13:24:23;;;;;;;;;;;6.00;99.90;;;;;;5069785;28;19970;-76
2024/01/31 13:26:50;;;;;;;;;;;6.00;99.90;;;;;;5036453;28;19920;-75
2024/01/31 13:29:16;;;;;;;;;;;6.00;99.90;;;;;;5052547;28;20233;-76
2024/01/31 13:31:41;;;;;;;;;;;6.10;99.90;;;;;;5039846;28;19924;-77
2024/01/31 13:34:07;;;;;;;;;;;6.10;99.90;;;;;;5041277;28;20366;-77
2024/01/31 13:36:33;;;;;;;;;;;6.10;99.90;;;;;;5078740;28;19947;-77
2024/01/31 13:38:59;;;;;;;;;;;6.10;99.90;;;;;;5046452;28;20002;-77
2024/01/31 13:41:25;;;;;;;;;;;6.20;99.90;;;;;;5046352;28;20054;-77
2024/01/31 13:43:51;;;;;;;;;;;6.10;99.90;;;;;;5038984;28;19921;-77
2024/01/31 13:46:16;;;;;;;;;;;6.10;99.90;;;;;;5039587;28;19917;-76
2024/01/31 13:48:43;;;;;;;;;;;6.10;99.90;;;;;;5048778;28;20213;-75
2024/01/31 13:51:12;;;;;;;;;;;6.10;99.90;;;;;;5067978;28;19917;-75
2024/01/31 13:53:41;;;;;;;;;;;6.10;99.90;;;;;;5056083;28;20333;-77
2024/01/31 13:56:07;;;;;;;;;;;6.00;99.90;;;;;;5053461;28;19997;-75
2024/01/31 13:58:33;;;;;;;;;;;6.10;99.90;;;;;;5046314;28;20087;-76
2024/01/31 14:00:59;;;;;;;;;;;6.10;99.90;;;;;;5055914;28;20468;-75
2024/01/31 14:03:24;;;;;;;;;;;6.20;99.90;;;;;;5047413;28;20376;-77
2024/01/31 14:05:50;;;;;;;;;;;6.10;99.90;;;;;;5055413;28;20245;-75
2024/01/31 14:08:16;;;;;;;;;;;6.10;99.90;;;;;;5070253;28;20384;-77
2024/01/31 14:10:42;;;;;;;;;;;6.10;99.90;;;;;;5072216;28;20585;-76
2024/01/31 14:13:07;;;;;;;;;;;6.10;99.90;;;;;;5071656;28;19916;-77
2024/01/31 14:15:33;;;;;;;;;;;6.10;99.90;;;;;;5050641;28;19927;-77
2024/01/31 14:17:59;;;;;;;;;;;6.10;99.90;;;;;;5078824;28;19938;-77
2024/01/31 14:20:24;;;;;;;;;;;6.10;99.90;;;;;;5060755;28;20478;-77
2024/01/31 14:22:50;;;;;;;;;;;6.20;99.90;;;;;;5054734;28;20219;-76
2024/01/31 14:25:16;;;;;;;;;;;6.20;99.90;;;;;;5022754;28;19913;-76
2024/01/31 14:27:41;;;;;;;;;;;6.10;99.90;;;;;;5059586;28;19999;-76